Time;durP1;ratioP1;P1;durP2;ratioP2;P2;SDS_P1;SDS_P2;PMS_P1;PMS_P2;Temp;Humidity;BMP_temperature;BMP_pressure;BME280_temperature;BME280_humidity;BME280_pressure;Samples;Min_cycle;Max_cycle;Signal;HPM_P1;HPM_P2
2023/01/19 00:00:53;;;;;;;57.07;34.83;;;6.80;96.30;;;;;;5067936;28;20205;-67
2023/01/19 00:03:20;;;;;;;62.33;34.63;;;6.80;96.40;;;;;;5060234;28;20214;-65
2023/01/19 00:05:48;;;;;;;62.40;34.30;;;6.80;96.60;;;;;;5062922;28;20226;-68
2023/01/19 00:08:15;;;;;;;59.30;33.70;;;6.80;96.70;;;;;;5062323;28;20319;-65
2023/01/19 00:10:45;;;;;;;62.27;34.73;;;6.80;96.80;;;;;;5063947;28;20641;-65
2023/01/19 00:13:13;;;;;;;60.17;34.63;;;6.70;96.80;;;;;;5065669;28;20281;-66
2023/01/19 00:15:40;;;;;;;59.50;33.67;;;6.70;96.80;;;;;;5058814;28;20628;-66
2023/01/19 00:18:07;;;;;;;61.40;35.60;;;6.80;96.90;;;;;;5061020;28;20222;-66
2023/01/19 00:20:37;;;;;;;61.57;35.27;;;6.80;96.90;;;;;;5058549;28;20352;-65
2023/01/19 00:23:04;;;;;;;67.37;35.13;;;6.80;96.90;;;;;;5065378;28;20542;-66
2023/01/19 00:25:31;;;;;;;63.93;33.17;;;6.80;96.90;;;;;;5056670;28;20240;-65
2023/01/19 00:27:58;;;;;;;61.20;34.63;;;6.80;97.00;;;;;;5061293;28;20539;-66
2023/01/19 00:30:28;;;;;;;63.17;34.77;;;6.80;97.00;;;;;;5059914;28;20641;-66
2023/01/19 00:32:55;;;;;;;62.13;34.43;;;6.90;97.00;;;;;;5063888;28;20292;-66
2023/01/19 00:35:22;;;;;;;64.03;36.23;;;6.90;97.10;;;;;;5061092;28;20198;-66
2023/01/19 00:37:50;;;;;;;67.10;37.20;;;6.90;97.10;;;;;;5061956;28;20269;-65
2023/01/19 00:40:17;;;;;;;57.80;34.10;;;6.90;97.10;;;;;;5063296;28;20216;-66
2023/01/19 00:42:47;;;;;;;63.00;35.23;;;6.90;97.10;;;;;;5062601;28;20291;-66
2023/01/19 00:45:20;;;;;;;61.90;36.40;;;6.90;97.00;;;;;;5064245;28;20221;-65
2023/01/19 00:47:49;;;;;;;63.40;35.73;;;6.90;97.00;;;;;;5065589;28;20540;-66
2023/01/19 00:50:16;;;;;;;64.00;34.97;;;6.90;97.00;;;;;;5056989;28;20198;-65
2023/01/19 00:52:43;;;;;;;63.33;35.97;;;7.00;97.00;;;;;;5063805;28;20260;-66
2023/01/19 00:55:12;;;;;;;61.30;34.13;;;6.90;96.90;;;;;;5061568;28;20199;-66
2023/01/19 00:57:40;;;;;;;56.00;34.67;;;7.00;97.00;;;;;;5065522;28;20252;-66
2023/01/19 01:00:14;;;;;;;65.37;35.30;;;6.90;97.00;;;;;;5059365;28;20258;-65
2023/01/19 01:02:42;;;;;;;64.83;37.23;;;7.00;97.00;;;;;;5067908;28;20563;-66
2023/01/19 01:05:10;;;;;;;62.73;34.80;;;6.90;97.00;;;;;;5065251;28;20561;-65
2023/01/19 01:07:43;;;;;;;65.10;35.43;;;6.90;96.90;;;;;;5062991;28;20199;-66
2023/01/19 01:10:13;;;;;;;53.57;33.23;;;7.00;97.00;;;;;;5067360;28;20277;-66
2023/01/19 01:12:41;;;;;;;56.83;33.27;;;6.90;96.90;;;;;;5065136;28;20194;-65
2023/01/19 01:15:26;;;;;;;57.47;33.13;;;7.00;96.80;;;;;;5064847;28;20203;-66
2023/01/19 01:17:54;;;;;;;57.80;32.43;;;6.90;96.70;;;;;;5067306;28;20198;-66
2023/01/19 01:20:26;;;;;;;59.40;33.57;;;6.90;96.60;;;;;;5063583;28;20193;-65
2023/01/19 01:22:55;;;;;;;58.93;33.57;;;6.90;96.60;;;;;;5071444;28;20213;-66
2023/01/19 01:25:24;;;;;;;56.93;32.40;;;6.90;96.60;;;;;;5071844;28;20566;-65
2023/01/19 01:27:52;;;;;;;64.83;33.30;;;6.90;96.70;;;;;;5071093;28;20518;-68
2023/01/19 01:30:19;;;;;;;60.47;34.50;;;6.90;96.50;;;;;;5066032;28;20234;-65
2023/01/19 01:32:46;;;;;;;57.73;32.93;;;6.80;96.40;;;;;;5059135;28;20194;-66
2023/01/19 01:35:14;;;;;;;54.80;32.73;;;6.80;96.60;;;;;;5067306;28;20225;-65
2023/01/19 01:37:42;;;;;;;57.00;33.17;;;6.80;96.70;;;;;;5065787;28;20201;-65
2023/01/19 01:40:12;;;;;;;56.60;32.63;;;6.80;96.80;;;;;;5061976;28;20206;-65
2023/01/19 01:42:39;;;;;;;53.50;32.63;;;6.80;96.90;;;;;;5059530;28;20528;-65
2023/01/19 01:45:25;;;;;;;57.67;33.07;;;6.80;96.90;;;;;;5065127;28;20243;-65
2023/01/19 01:47:56;;;;;;;60.37;32.43;;;6.80;96.90;;;;;;5066129;28;20262;-66
2023/01/19 01:50:28;;;;;;;62.67;33.80;;;6.80;96.90;;;;;;5061942;28;20217;-66
2023/01/19 01:53:01;;;;;;;56.67;32.00;;;6.80;96.90;;;;;;5072990;28;20206;-66
2023/01/19 01:55:45;;;;;;;53.33;32.57;;;6.80;96.90;;;;;;5069288;28;20285;-66
2023/01/19 01:58:14;;;;;;;52.93;30.50;;;6.80;97.00;;;;;;5066148;28;20203;-66
2023/01/19 02:03:28;;;;;;;58.00;32.40;;;6.90;97.00;;;;;;5065156;28;20528;-65
2023/01/19 02:05:58;;;;;;;55.47;33.10;;;6.90;96.90;;;;;;5062702;28;20221;-65
2023/01/19 02:14:13;;;;;;;60.73;32.30;;;6.90;96.90;;;;;;5063567;28;20218;-66
2023/01/19 02:16:40;;;;;;;49.77;31.37;;;6.90;96.90;;;;;;5065565;28;20315;-66
2023/01/19 02:19:15;;;;;;;51.17;32.27;;;6.90;96.90;;;;;;5066130;28;20263;-66
2023/01/19 02:22:10;;;;;;;55.97;33.30;;;6.90;96.90;;;;;;5070739;28;20212;-65
2023/01/19 02:25:06;;;;;;;58.13;30.87;;;6.90;96.80;;;;;;5063780;28;20198;-66
2023/01/19 02:27:35;;;;;;;50.30;29.77;;;6.90;96.80;;;;;;5071308;28;20202;-66
2023/01/19 02:30:03;;;;;;;54.60;31.00;;;6.90;96.80;;;;;;5064059;28;20632;-65
2023/01/19 02:32:30;;;;;;;58.37;30.90;;;6.90;96.90;;;;;;5066356;28;20198;-66
2023/01/19 02:34:57;;;;;;;62.97;32.87;;;6.90;97.00;;;;;;5062682;28;20226;-65
2023/01/19 02:37:26;;;;;;;56.30;32.00;;;6.90;97.00;;;;;;5063619;28;20267;-66
2023/01/19 02:39:57;;;;;;;52.57;30.23;;;6.90;96.90;;;;;;5063876;28;20213;-66
2023/01/19 02:42:29;;;;;;;54.63;32.60;;;6.90;97.00;;;;;;5061809;28;20202;-66
2023/01/19 02:44:56;;;;;;;54.03;33.50;;;6.90;97.00;;;;;;5060803;28;20531;-66
2023/01/19 02:47:23;;;;;;;47.57;30.43;;;6.80;97.00;;;;;;5062866;28;20182;-66
2023/01/19 02:49:58;;;;;;;57.37;31.17;;;6.90;97.00;;;;;;5067978;28;20198;-65
2023/01/19 02:52:26;;;;;;;56.07;32.50;;;6.90;97.00;;;;;;5068067;28;20252;-65
2023/01/19 02:55:17;;;;;;;61.80;33.63;;;6.90;96.90;;;;;;5061588;28;20190;-66
2023/01/19 02:57:53;;;;;;;52.47;30.80;;;6.90;96.70;;;;;;5066026;28;20206;-66
2023/01/19 03:00:57;;;;;;;53.93;31.40;;;6.80;96.70;;;;;;5062239;28;20663;-66
2023/01/19 03:03:34;;;;;;;61.03;33.97;;;6.80;96.50;;;;;;5066365;28;20707;-66
2023/01/19 03:06:39;;;;;;;55.63;32.70;;;6.70;96.40;;;;;;5069134;28;20220;-66
2023/01/19 03:09:19;;;;;;;59.13;33.27;;;6.60;96.50;;;;;;5063072;28;20217;-66
2023/01/19 03:11:54;;;;;;;58.57;34.47;;;6.50;96.60;;;;;;5062979;28;20190;-65
2023/01/19 03:14:25;;;;;;;62.40;34.00;;;6.50;96.80;;;;;;5071178;28;20536;-66
2023/01/19 03:17:00;;;;;;;57.90;33.17;;;6.40;96.90;;;;;;5069041;28;20625;-66
2023/01/19 03:19:30;;;;;;;59.97;35.27;;;6.40;96.90;;;;;;5068053;28;20201;-66
2023/01/19 03:22:01;;;;;;;64.77;35.67;;;6.40;96.90;;;;;;5064906;28;20523;-66
2023/01/19 03:24:32;;;;;;;55.70;32.37;;;6.30;96.90;;;;;;5061516;28;20205;-67
2023/01/19 03:27:05;;;;;;;57.17;30.70;;;6.30;97.00;;;;;;5065735;28;20230;-66
2023/01/19 03:29:33;;;;;;;59.47;32.33;;;6.30;97.10;;;;;;5062103;28;20194;-65
2023/01/19 03:32:05;;;;;;;52.33;30.50;;;6.30;97.20;;;;;;5059817;28;20646;-66
2023/01/19 03:34:33;;;;;;;52.67;29.73;;;6.30;97.20;;;;;;5062456;28;20256;-66
2023/01/19 03:37:03;;;;;;;54.43;29.97;;;6.30;97.20;;;;;;5064268;28;20212;-65
2023/01/19 03:39:31;;;;;;;53.67;30.53;;;6.30;97.20;;;;;;5062540;28;20208;-66
2023/01/19 03:42:03;;;;;;;55.60;30.63;;;6.30;97.10;;;;;;5062922;28;20210;-65
2023/01/19 03:44:35;;;;;;;51.00;29.03;;;6.30;97.20;;;;;;5064932;28;20228;-66
2023/01/19 03:47:05;;;;;;;54.60;30.63;;;6.30;97.10;;;;;;5059689;28;20271;-66
2023/01/19 03:49:34;;;;;;;59.83;31.93;;;6.20;97.20;;;;;;5065447;28;20208;-66
2023/01/19 03:52:01;;;;;;;55.30;31.60;;;6.30;97.30;;;;;;5067209;28;20217;-66
2023/01/19 03:54:28;;;;;;;57.50;31.90;;;6.30;97.30;;;;;;5066121;28;20205;-66
2023/01/19 03:56:55;;;;;;;57.70;31.80;;;6.30;97.40;;;;;;5065337;28;20205;-66
2023/01/19 03:59:22;;;;;;;59.93;33.23;;;6.30;97.40;;;;;;5065625;28;20209;-66
2023/01/19 04:01:49;;;;;;;61.07;33.17;;;6.40;97.40;;;;;;5060327;28;20610;-66
2023/01/19 04:04:16;;;;;;;64.20;33.43;;;6.40;97.50;;;;;;5064043;28;20208;-66
2023/01/19 04:06:43;;;;;;;66.20;32.37;;;6.40;97.50;;;;;;5063493;28;20219;-66
2023/01/19 04:09:10;;;;;;;66.70;34.47;;;6.40;97.50;;;;;;5068224;28;20523;-66
2023/01/19 04:11:37;;;;;;;63.20;34.37;;;6.40;97.50;;;;;;5061462;28;20201;-65
2023/01/19 04:14:04;;;;;;;60.23;34.63;;;6.40;97.50;;;;;;5064007;28;20206;-66
2023/01/19 04:16:31;;;;;;;63.80;34.23;;;6.40;97.40;;;;;;5063516;28;20259;-65
2023/01/19 04:18:58;;;;;;;59.33;32.13;;;6.50;97.40;;;;;;5065047;28;20206;-66
2023/01/19 04:21:25;;;;;;;58.43;34.80;;;6.50;97.40;;;;;;5066356;28;20210;-66
2023/01/19 04:23:53;;;;;;;63.17;34.60;;;6.50;97.40;;;;;;5063804;28;20637;-66
2023/01/19 04:26:20;;;;;;;57.53;33.17;;;6.40;97.40;;;;;;5063516;28;20213;-65
2023/01/19 04:28:46;;;;;;;69.07;37.13;;;6.40;97.40;;;;;;5066524;28;20255;-66
2023/01/19 04:31:13;;;;;;;69.60;37.67;;;6.40;97.40;;;;;;5058759;28;20255;-66
2023/01/19 04:33:41;;;;;;;66.00;35.73;;;6.40;97.40;;;;;;5063274;28;20237;-66
2023/01/19 04:36:08;;;;;;;63.87;35.13;;;6.40;97.50;;;;;;5064066;28;20197;-66
2023/01/19 04:38:35;;;;;;;63.37;35.30;;;6.40;97.50;;;;;;5063808;28;20212;-65
2023/01/19 04:41:02;;;;;;;60.10;35.30;;;6.40;97.60;;;;;;5061172;28;20210;-66
2023/01/19 04:43:29;;;;;;;61.37;35.97;;;6.40;97.60;;;;;;5062391;28;20656;-66
2023/01/19 04:45:56;;;;;;;67.57;36.50;;;6.40;97.60;;;;;;5062399;28;20746;-66
2023/01/19 04:48:23;;;;;;;61.63;34.33;;;6.40;97.60;;;;;;5064351;28;20210;-66
2023/01/19 04:50:51;;;;;;;60.03;35.23;;;6.40;97.60;;;;;;5064760;28;20202;-65
2023/01/19 04:53:18;;;;;;;61.53;34.60;;;6.40;97.70;;;;;;5070122;28;20203;-66
2023/01/19 04:55:45;;;;;;;66.07;35.17;;;6.40;97.60;;;;;;5059599;28;20264;-66
2023/01/19 04:58:12;;;;;;;60.53;33.33;;;6.40;97.60;;;;;;5069136;28;20202;-65
2023/01/19 05:00:39;;;;;;;67.33;36.63;;;6.40;97.50;;;;;;5072627;28;20209;-66
2023/01/19 05:03:06;;;;;;;60.97;32.73;;;6.40;97.50;;;;;;5068008;28;20242;-66
2023/01/19 05:05:34;;;;;;;61.73;33.60;;;6.40;97.50;;;;;;5065209;28;20263;-68
2023/01/19 05:08:01;;;;;;;61.70;34.30;;;6.40;97.40;;;;;;5062025;28;20229;-66
2023/01/19 05:10:28;;;;;;;60.93;34.97;;;6.30;97.30;;;;;;5073932;28;20212;-66
2023/01/19 05:12:55;;;;;;;56.20;33.00;;;6.30;97.30;;;;;;5062263;28;20670;-66
2023/01/19 05:15:22;;;;;;;59.47;35.03;;;6.20;97.40;;;;;;5072793;28;20195;-66
2023/01/19 05:17:49;;;;;;;58.30;34.00;;;6.10;97.40;;;;;;5068143;28;20213;-66
2023/01/19 05:20:16;;;;;;;62.60;33.27;;;6.10;97.50;;;;;;5073973;28;20212;-66
2023/01/19 05:22:50;;;;;;;66.77;34.50;;;6.10;97.50;;;;;;5070919;28;20638;-66
2023/01/19 05:25:18;;;;;;;60.20;32.60;;;6.10;97.60;;;;;;5056262;28;20221;-66
2023/01/19 05:27:45;;;;;;;56.77;32.30;;;6.00;97.70;;;;;;5067236;28;20225;-66
2023/01/19 05:30:13;;;;;;;59.40;33.37;;;6.00;97.80;;;;;;5064296;28;20738;-66
2023/01/19 05:32:40;;;;;;;63.83;33.90;;;6.10;97.90;;;;;;5056914;28;20230;-66
2023/01/19 05:35:07;;;;;;;58.10;33.07;;;6.10;97.90;;;;;;5071506;28;20205;-66
2023/01/19 05:37:34;;;;;;;59.30;34.23;;;6.10;97.90;;;;;;5065180;28;20686;-65
2023/01/19 05:40:02;;;;;;;62.43;35.67;;;6.20;97.80;;;;;;5066638;28;20209;-66
2023/01/19 05:42:29;;;;;;;58.73;32.93;;;6.20;97.90;;;;;;5063533;28;20205;-66
2023/01/19 05:44:58;;;;;;;61.10;33.60;;;6.20;97.80;;;;;;5064672;28;20210;-66
2023/01/19 05:47:28;;;;;;;55.57;30.40;;;6.20;97.80;;;;;;5063934;28;20683;-66
2023/01/19 05:49:55;;;;;;;55.60;31.50;;;6.20;97.70;;;;;;5067380;28;20206;-66
2023/01/19 05:52:23;;;;;;;59.77;33.47;;;6.20;97.70;;;;;;5069569;28;20209;-66
2023/01/19 05:54:50;;;;;;;58.13;31.67;;;6.20;97.70;;;;;;5060174;28;20576;-66
2023/01/19 05:57:17;;;;;;;68.77;34.60;;;6.20;97.70;;;;;;5068021;28;20648;-66
2023/01/19 05:59:45;;;;;;;61.70;34.00;;;6.20;97.90;;;;;;5069021;28;20217;-66
2023/01/19 06:02:12;;;;;;;59.83;34.57;;;6.20;98.00;;;;;;5068009;28;20264;-66
2023/01/19 06:04:39;;;;;;;67.87;35.43;;;6.20;98.00;;;;;;5062564;28;20283;-66
2023/01/19 06:07:06;;;;;;;65.00;36.50;;;6.30;98.00;;;;;;5063220;28;20691;-66
2023/01/19 06:09:33;;;;;;;68.43;34.30;;;6.30;98.00;;;;;;5067336;28;20569;-66
2023/01/19 06:12:00;;;;;;;71.17;35.57;;;6.40;98.00;;;;;;5066112;28;20203;-66
2023/01/19 06:14:27;;;;;;;62.90;34.37;;;6.40;97.90;;;;;;5063634;28;20259;-66
2023/01/19 06:16:54;;;;;;;67.33;35.83;;;6.40;97.80;;;;;;5064654;28;20222;-66
2023/01/19 06:19:21;;;;;;;62.93;35.40;;;6.40;97.90;;;;;;5066525;28;20206;-66
2023/01/19 06:21:50;;;;;;;61.23;33.77;;;6.40;98.00;;;;;;5068356;28;20269;-66
2023/01/19 06:24:18;;;;;;;63.30;34.00;;;6.40;98.00;;;;;;5060799;28;20209;-66
2023/01/19 06:26:45;;;;;;;58.50;33.20;;;6.40;98.00;;;;;;5063988;28;20275;-66
2023/01/19 06:29:13;;;;;;;61.10;33.50;;;6.50;97.90;;;;;;5064623;28;20195;-66
2023/01/19 06:31:40;;;;;;;63.00;32.90;;;6.40;97.80;;;;;;5064296;28;20238;-66
2023/01/19 06:34:08;;;;;;;65.17;35.23;;;6.40;97.90;;;;;;5064335;28;20593;-66
2023/01/19 06:36:35;;;;;;;66.67;34.67;;;6.40;97.90;;;;;;5064201;28;20217;-66
2023/01/19 06:39:04;;;;;;;66.67;34.80;;;6.40;97.80;;;;;;5076424;28;20203;-66
2023/01/19 06:41:32;;;;;;;63.73;35.03;;;6.30;97.90;;;;;;5061335;28;20596;-66
2023/01/19 06:44:00;;;;;;;64.60;33.73;;;6.30;98.00;;;;;;5060223;28;20210;-66
2023/01/19 06:46:27;;;;;;;67.20;36.13;;;6.30;98.10;;;;;;5062735;28;20300;-65
2023/01/19 06:48:54;;;;;;;60.43;34.30;;;6.30;98.10;;;;;;5063719;28;20205;-66
2023/01/19 06:51:21;;;;;;;60.07;34.53;;;6.30;98.10;;;;;;5064006;28;20270;-66
2023/01/19 06:53:49;;;;;;;66.53;37.17;;;6.20;98.10;;;;;;5065417;28;20203;-66
2023/01/19 06:56:16;;;;;;;67.70;34.70;;;6.20;98.20;;;;;;5071799;28;20220;-66
2023/01/19 06:58:45;;;;;;;61.87;33.07;;;6.20;98.20;;;;;;5063953;28;20256;-68
2023/01/19 07:01:12;;;;;;;66.07;35.00;;;6.20;98.20;;;;;;5060217;28;20939;-66
2023/01/19 07:03:39;;;;;;;61.57;34.30;;;6.20;98.40;;;;;;5066151;28;20631;-66
2023/01/19 07:06:07;;;;;;;60.27;35.27;;;6.20;98.20;;;;;;5061466;28;20204;-66
2023/01/19 07:08:35;;;;;;;69.73;36.90;;;6.20;98.30;;;;;;5063862;28;20193;-66
2023/01/19 07:11:05;;;;;;;63.17;36.43;;;6.20;98.30;;;;;;5067697;28;20217;-67
2023/01/19 07:13:54;;;;;;;66.60;33.30;;;6.30;98.40;;;;;;5063616;28;20226;-66
2023/01/19 07:16:21;;;;;;;64.07;34.57;;;6.30;98.40;;;;;;5064245;28;20204;-66
2023/01/19 07:18:49;;;;;;;74.87;38.83;;;6.30;98.40;;;;;;5068007;28;20224;-66
2023/01/19 07:21:16;;;;;;;65.27;35.77;;;6.30;98.40;;;;;;5071025;28;20223;-65
2023/01/19 07:23:43;;;;;;;63.60;33.57;;;6.40;98.50;;;;;;5063734;28;20204;-65
2023/01/19 07:26:10;;;;;;;70.30;37.47;;;6.40;98.50;;;;;;5062313;28;20202;-66
2023/01/19 07:28:37;;;;;;;69.27;36.00;;;6.40;98.50;;;;;;5063731;28;20191;-66
2023/01/19 07:31:04;;;;;;;68.27;36.87;;;6.40;98.50;;;;;;5057305;28;20678;-66
2023/01/19 07:33:32;;;;;;;67.00;35.20;;;6.50;98.50;;;;;;5064739;28;20199;-65
2023/01/19 07:35:59;;;;;;;70.70;33.90;;;6.50;98.40;;;;;;5061056;28;20285;-66
2023/01/19 07:38:26;;;;;;;66.63;35.47;;;6.50;98.40;;;;;;5062046;28;20198;-66
2023/01/19 07:41:00;;;;;;;70.70;36.53;;;6.60;98.40;;;;;;5061832;28;20636;-66
2023/01/19 07:43:27;;;;;;;73.13;36.60;;;6.60;98.40;;;;;;5065633;28;20212;-65
2023/01/19 07:46:03;;;;;;;69.00;36.57;;;6.60;98.40;;;;;;5065497;28;20504;-66
2023/01/19 07:48:30;;;;;;;78.70;37.67;;;6.60;98.40;;;;;;5061554;28;20282;-66
2023/01/19 07:51:04;;;;;;;73.73;36.30;;;6.70;98.30;;;;;;5062408;28;20524;-66
2023/01/19 07:53:31;;;;;;;74.57;37.80;;;6.70;98.30;;;;;;5063831;28;20838;-65
2023/01/19 07:55:58;;;;;;;77.20;38.33;;;6.80;98.30;;;;;;5064793;28;20285;-66
2023/01/19 07:58:26;;;;;;;76.50;39.47;;;6.80;98.30;;;;;;5063017;28;20256;-66
2023/01/19 08:00:53;;;;;;;84.37;40.30;;;6.80;98.30;;;;;;5062177;28;20203;-66
2023/01/19 08:03:20;;;;;;;73.53;38.20;;;6.80;98.20;;;;;;5055197;28;20221;-66
2023/01/19 08:05:51;;;;;;;67.53;39.53;;;6.80;98.10;;;;;;5064560;28;20671;-66
2023/01/19 08:08:19;;;;;;;73.70;39.50;;;6.90;98.00;;;;;;5058414;28;20223;-65
2023/01/19 08:10:49;;;;;;;83.27;41.23;;;6.90;98.00;;;;;;5061790;28;20201;-68
2023/01/19 08:13:16;;;;;;;77.73;39.83;;;7.00;98.10;;;;;;5062954;28;20284;-66
2023/01/19 08:15:43;;;;;;;76.67;40.53;;;7.00;98.10;;;;;;5062114;28;20198;-65
2023/01/19 08:18:10;;;;;;;80.17;40.47;;;7.10;98.00;;;;;;5066866;28;20690;-66
2023/01/19 08:20:38;;;;;;;81.23;41.53;;;7.10;98.00;;;;;;5080020;28;20215;-66
2023/01/19 08:23:05;;;;;;;81.53;41.47;;;7.20;97.90;;;;;;5067585;28;20506;-66
2023/01/19 08:25:43;;;;;;;79.60;41.23;;;7.20;97.90;;;;;;5058812;28;20244;-66
2023/01/19 08:28:12;;;;;;;80.40;41.30;;;7.30;97.90;;;;;;5066088;28;20776;-66
2023/01/19 08:30:42;;;;;;;76.90;42.10;;;7.40;98.00;;;;;;5059602;28;20312;-65
2023/01/19 08:33:11;;;;;;;74.83;40.33;;;7.50;98.00;;;;;;5063139;28;20210;-66
2023/01/19 08:35:40;;;;;;;79.77;40.20;;;7.60;97.90;;;;;;5059243;28;20203;-65
2023/01/19 08:38:09;;;;;;;72.27;39.87;;;7.70;97.70;;;;;;5062996;28;20263;-66
2023/01/19 08:40:38;;;;;;;72.70;40.33;;;7.80;97.50;;;;;;5060814;28;20210;-65
2023/01/19 08:43:08;;;;;;;72.77;39.17;;;7.80;97.30;;;;;;5069938;28;20202;-66
2023/01/19 08:45:41;;;;;;;77.37;41.40;;;7.90;97.20;;;;;;5065712;28;20197;-66
2023/01/19 08:48:09;;;;;;;78.93;39.57;;;7.90;97.10;;;;;;5062441;28;20304;-66
2023/01/19 08:50:36;;;;;;;75.37;39.77;;;7.90;97.10;;;;;;5059862;28;20197;-66
2023/01/19 08:53:05;;;;;;;72.53;41.33;;;8.00;96.90;;;;;;5063771;28;20249;-66
2023/01/19 08:55:35;;;;;;;83.70;41.17;;;8.00;96.90;;;;;;5066627;28;20273;-65
2023/01/19 08:58:03;;;;;;;72.03;38.67;;;8.10;96.80;;;;;;5063576;28;20286;-66
2023/01/19 09:00:33;;;;;;;73.00;40.40;;;8.20;96.60;;;;;;5063041;28;20641;-65
2023/01/19 09:03:03;;;;;;;76.50;38.93;;;8.20;96.40;;;;;;5066688;28;20548;-66
2023/01/19 09:05:36;;;;;;;80.60;38.87;;;8.20;95.70;;;;;;5062513;28;20198;-65
2023/01/19 09:08:13;;;;;;;83.13;40.27;;;8.20;95.10;;;;;;5059701;28;20218;-67
2023/01/19 09:10:46;;;;;;;69.80;37.00;;;8.10;95.00;;;;;;5062028;28;20194;-66
2023/01/19 09:13:13;;;;;;;63.40;34.57;;;8.00;94.90;;;;;;5057534;28;20208;-66
2023/01/19 09:15:42;;;;;;;70.87;35.70;;;7.90;94.90;;;;;;5064019;28;20194;-66
2023/01/19 09:18:12;;;;;;;64.00;32.83;;;7.90;95.20;;;;;;5060488;28;20524;-65
2023/01/19 09:20:41;;;;;;;70.37;33.27;;;7.80;94.90;;;;;;5065480;28;20194;-66
2023/01/19 09:23:13;;;;;;;68.63;31.80;;;7.70;94.80;;;;;;5059182;28;20226;-65
2023/01/19 09:25:42;;;;;;;67.17;31.17;;;7.60;95.10;;;;;;5061334;28;20222;-66
2023/01/19 09:28:11;;;;;;;58.67;28.80;;;7.50;95.30;;;;;;5061731;28;20216;-66
2023/01/19 09:30:40;;;;;;;55.37;27.80;;;7.50;95.40;;;;;;5068014;28;20493;-66
2023/01/19 09:33:12;;;;;;;52.40;26.37;;;7.40;95.30;;;;;;5067044;28;20203;-66
2023/01/19 09:35:40;;;;;;;63.67;29.57;;;7.30;95.20;;;;;;5062943;28;20215;-66
2023/01/19 09:38:09;;;;;;;60.83;28.87;;;7.20;95.10;;;;;;5066159;28;20201;-66
2023/01/19 09:40:57;;;;;;;60.57;29.63;;;7.10;94.90;;;;;;5065581;28;20220;-65
2023/01/19 09:43:32;;;;;;;64.60;27.60;;;7.00;95.10;;;;;;5067415;28;20195;-66
2023/01/19 09:46:01;;;;;;;52.93;27.27;;;6.90;95.40;;;;;;5067801;28;20206;-66
2023/01/19 09:48:50;;;;;;;63.10;28.77;;;6.90;95.80;;;;;;5062021;28;20216;-66
2023/01/19 09:51:26;;;;;;;51.07;26.37;;;6.90;95.90;;;;;;5065712;28;20190;-66
2023/01/19 09:54:12;;;;;;;58.60;26.57;;;6.90;95.90;;;;;;5068086;28;20201;-66
2023/01/19 09:56:39;;;;;;;59.77;26.13;;;6.90;95.90;;;;;;5066651;28;20201;-65
2023/01/19 09:59:27;;;;;;;52.83;25.20;;;6.90;95.90;;;;;;5064146;28;20281;-66
2023/01/19 10:02:16;;;;;;;55.40;26.67;;;6.90;96.00;;;;;;5067272;28;20263;-64
2023/01/19 10:05:04;;;;;;;59.70;27.13;;;6.90;96.10;;;;;;5067138;28;20218;-66
2023/01/19 10:07:53;;;;;;;56.37;28.07;;;6.90;96.10;;;;;;5068185;28;20221;-63
2023/01/19 10:10:28;;;;;;;58.50;27.93;;;6.90;95.80;;;;;;5063951;28;20194;-64
2023/01/19 10:13:16;;;;;;;54.47;27.23;;;6.90;95.40;;;;;;5079662;28;20648;-64
2023/01/19 10:16:16;;;;;;;51.23;26.63;;;6.90;95.60;;;;;;5066633;28;20191;-63
2023/01/19 10:18:46;;;;;;;52.67;27.20;;;6.90;95.60;;;;;;5065372;28;20659;-64
2023/01/19 10:21:30;;;;;;;50.13;25.67;;;6.90;95.70;;;;;;5065064;28;20208;-64
2023/01/19 10:24:12;;;;;;;53.20;25.80;;;6.90;95.90;;;;;;5098826;28;20722;-65
2023/01/19 10:26:43;;;;;;;49.40;24.73;;;6.90;95.70;;;;;;5060809;28;20539;-65
2023/01/19 10:29:24;;;;;;;51.47;26.77;;;7.00;95.60;;;;;;5066299;28;20652;-64
2023/01/19 10:32:00;;;;;;;50.70;24.33;;;7.00;95.60;;;;;;5099693;28;20247;-64
2023/01/19 10:34:27;;;;;;;50.83;23.77;;;7.10;95.60;;;;;;5061896;28;20285;-64
2023/01/19 10:37:00;;;;;;;56.10;25.90;;;7.20;96.10;;;;;;5070496;28;20678;-64
2023/01/19 10:39:27;;;;;;;55.63;27.10;;;7.30;95.80;;;;;;5066775;28;20214;-64
2023/01/19 10:41:59;;;;;;;57.23;26.87;;;7.40;95.80;;;;;;5062835;28;20241;-64
2023/01/19 10:44:28;;;;;;;43.13;23.13;;;7.50;95.50;;;;;;5064686;28;20203;-64
2023/01/19 10:46:58;;;;;;;52.03;25.87;;;7.50;95.40;;;;;;5066986;28;20485;-64
2023/01/19 10:49:27;;;;;;;56.90;26.83;;;7.50;95.20;;;;;;5069691;28;20566;-64
2023/01/19 10:51:56;;;;;;;50.07;25.27;;;7.60;95.20;;;;;;5067887;28;20275;-65
2023/01/19 10:54:25;;;;;;;57.17;27.90;;;7.60;95.10;;;;;;5064042;28;20190;-65
2023/01/19 10:57:03;;;;;;;55.33;27.77;;;7.60;95.00;;;;;;5067864;28;20570;-64
2023/01/19 10:59:50;;;;;;;57.93;28.33;;;7.70;95.20;;;;;;5060803;28;20213;-63
2023/01/19 11:02:25;;;;;;;55.33;28.83;;;7.80;95.10;;;;;;5064531;28;20672;-64
2023/01/19 11:04:55;;;;;;;60.27;29.50;;;7.90;95.00;;;;;;5062877;28;20640;-63
2023/01/19 11:07:31;;;;;;;59.47;27.43;;;7.90;94.80;;;;;;5065204;28;20203;-65
2023/01/19 11:10:16;;;;;;;65.73;29.57;;;8.00;94.40;;;;;;5065459;28;20194;-68
2023/01/19 11:13:00;;;;;;;56.77;27.70;;;7.90;93.80;;;;;;5063111;28;20194;-64
2023/01/19 11:15:43;;;;;;;63.77;31.43;;;7.90;94.00;;;;;;5065784;28;20194;-63
2023/01/19 11:18:28;;;;;;;58.40;29.27;;;7.90;94.20;;;;;;5062780;28;20207;-64
2023/01/19 11:21:05;;;;;;;62.03;30.37;;;8.00;93.90;;;;;;5065430;28;20211;-64
2023/01/19 11:23:41;;;;;;;55.87;29.27;;;8.00;93.80;;;;;;5066505;28;20224;-62
2023/01/19 11:26:15;;;;;;;58.83;31.00;;;8.00;93.90;;;;;;5071624;28;20205;-66
2023/01/19 11:28:47;;;;;;;61.17;31.27;;;8.00;93.70;;;;;;5064529;28;20238;-64
2023/01/19 11:31:14;;;;;;;54.43;29.40;;;8.10;94.00;;;;;;5064335;28;20198;-64
2023/01/19 11:33:53;;;;;;;55.67;28.87;;;8.20;94.00;;;;;;5064019;28;20228;-63
2023/01/19 11:36:24;;;;;;;63.47;30.57;;;8.40;93.80;;;;;;5057728;28;20566;-64
2023/01/19 11:38:57;;;;;;;58.53;31.43;;;8.50;93.50;;;;;;5059628;28;20209;-65
2023/01/19 11:41:34;;;;;;;62.97;32.60;;;8.50;93.00;;;;;;5069627;28;20194;-64
2023/01/19 11:44:20;;;;;;;56.80;31.23;;;8.70;92.90;;;;;;5062966;28;20201;-66
2023/01/19 11:46:54;;;;;;;60.90;29.70;;;8.80;92.80;;;;;;5065190;28;20197;-65
2023/01/19 11:49:43;;;;;;;56.47;31.67;;;8.80;92.10;;;;;;5066400;28;20543;-65
2023/01/19 11:52:30;;;;;;;56.37;29.47;;;8.70;92.00;;;;;;5062510;28;20215;-66
2023/01/19 11:55:13;;;;;;;61.10;31.83;;;8.70;92.10;;;;;;5061331;28;20221;-64
2023/01/19 11:57:49;;;;;;;59.10;32.03;;;8.60;92.00;;;;;;5063981;28;20207;-63
2023/01/19 12:00:37;;;;;;;66.30;32.47;;;8.50;91.80;;;;;;5062651;28;20198;-63
2023/01/19 12:03:30;;;;;;;60.80;31.23;;;8.50;92.00;;;;;;5064040;28;20321;-63
2023/01/19 12:06:23;;;;;;;63.60;33.27;;;8.40;92.20;;;;;;5063286;28;20222;-64
2023/01/19 12:09:08;;;;;;;60.57;31.70;;;8.40;92.40;;;;;;5064551;28;20221;-64
2023/01/19 12:11:40;;;;;;;60.57;30.80;;;8.40;92.40;;;;;;5063270;28;20200;-64
2023/01/19 12:14:25;;;;;;;61.33;31.07;;;8.40;92.40;;;;;;5059902;28;20574;-64
2023/01/19 12:16:57;;;;;;;66.93;32.27;;;8.40;92.40;;;;;;5069075;28;20208;-62
2023/01/19 12:19:35;;;;;;;61.30;32.00;;;8.40;92.50;;;;;;5058813;28;20553;-63
2023/01/19 12:22:04;;;;;;;57.10;29.43;;;8.40;92.30;;;;;;5060130;28;20194;-66
2023/01/19 12:24:44;;;;;;;56.87;30.40;;;8.30;92.30;;;;;;5063362;28;20385;-65
2023/01/19 12:27:21;;;;;;;54.23;29.00;;;8.40;92.50;;;;;;5062622;28;20195;-63
2023/01/19 12:29:49;;;;;;;52.43;28.40;;;8.40;92.60;;;;;;5061089;28;20517;-63
2023/01/19 12:32:17;;;;;;;48.67;25.73;;;8.50;92.70;;;;;;5063773;28;20187;-64
2023/01/19 12:34:54;;;;;;;46.07;25.83;;;8.60;92.70;;;;;;5063722;28;20640;-63
2023/01/19 12:37:33;;;;;;;44.10;25.77;;;8.70;92.30;;;;;;5068831;28;20287;-64
2023/01/19 12:40:17;;;;;;;56.03;28.10;;;8.80;91.90;;;;;;5059693;28;20257;-64
2023/01/19 12:43:03;;;;;;;53.20;25.17;;;8.90;91.90;;;;;;5066662;28;20199;-64
2023/01/19 12:45:33;;;;;;;46.37;25.73;;;9.10;91.50;;;;;;5060880;28;20191;-63
2023/01/19 12:48:01;;;;;;;48.03;25.63;;;9.20;91.50;;;;;;5064085;28;20210;-64
2023/01/19 12:50:36;;;;;;;54.20;28.00;;;9.20;91.40;;;;;;5059392;28;20203;-63
2023/01/19 12:53:15;;;;;;;54.93;27.37;;;9.30;91.30;;;;;;5064830;28;20204;-65
2023/01/19 12:55:45;;;;;;;49.80;27.30;;;9.30;91.40;;;;;;5067025;28;20206;-64
2023/01/19 12:58:21;;;;;;;44.77;26.00;;;9.30;91.40;;;;;;5065136;28;20200;-63
2023/01/19 13:01:09;;;;;;;46.73;25.90;;;9.30;91.40;;;;;;5080939;28;20521;-63
2023/01/19 13:03:59;;;;;;;51.17;26.90;;;9.30;91.40;;;;;;5066798;28;20210;-63
2023/01/19 13:06:48;;;;;;;47.53;25.43;;;9.30;91.30;;;;;;5068743;28;20236;-64